createdAt,value
2022-09-21T00:01:39.813Z,3.20
2022-09-21T00:04:08.078Z,2.00
2022-09-21T00:06:38.121Z,2.90
2022-09-21T00:09:08.380Z,2.00
2022-09-21T00:11:37.206Z,3.20
2022-09-21T00:14:13.286Z,3.20
2022-09-21T00:16:43.475Z,2.80
2022-09-21T00:19:12.243Z,5.70
2022-09-21T00:21:40.493Z,3.70
2022-09-21T00:24:08.922Z,2.40
2022-09-21T00:26:37.275Z,4.70
2022-09-21T00:29:05.812Z,4.70
2022-09-21T00:31:35.431Z,6.20
2022-09-21T00:34:03.883Z,2.80
2022-09-21T00:36:32.114Z,13.40
2022-09-21T00:39:01.976Z,9.80
2022-09-21T00:41:32.830Z,5.80
2022-09-21T00:44:16.230Z,5.60
2022-09-21T00:46:45.834Z,4.20
2022-09-21T00:49:15.332Z,2.60
2022-09-21T00:51:44.591Z,2.60
2022-09-21T00:54:20.753Z,3.50
2022-09-21T00:56:48.967Z,2.10
2022-09-21T00:59:21.672Z,3.80
2022-09-21T01:01:51.516Z,2.80
2022-09-21T01:04:20.529Z,1.70
2022-09-21T01:06:50.496Z,4.10
2022-09-21T01:09:19.801Z,3.80
2022-09-21T01:12:15.315Z,3.60
2022-09-21T01:15:08.001Z,3.30
2022-09-21T01:17:46.742Z,3.00
2022-09-21T01:20:29.519Z,2.30
2022-09-21T01:23:09.637Z,3.60
2022-09-21T01:25:40.691Z,2.20
2022-09-21T01:28:46.369Z,3.10
2022-09-21T01:31:22.064Z,3.40
2022-09-21T01:33:55.809Z,2.00
2022-09-21T01:36:28.794Z,1.90
2022-09-21T01:39:05.865Z,2.80
2022-09-21T01:41:35.688Z,2.70
2022-09-21T01:44:08.758Z,3.20
2022-09-21T01:46:38.330Z,3.30
2022-09-21T01:49:13.174Z,2.10
2022-09-21T01:51:46.890Z,5.10
2022-09-21T01:54:22.617Z,3.30
2022-09-21T01:57:00.195Z,5.90
2022-09-21T01:59:51.137Z,5.10
2022-09-21T02:02:45.254Z,4.10
2022-09-21T02:05:16.582Z,4.70
2022-09-21T02:07:45.692Z,4.50
2022-09-21T02:10:21.230Z,5.50
2022-09-21T02:12:53.731Z,5.00
2022-09-21T02:15:29.034Z,5.00
2022-09-21T02:18:08.967Z,2.90
2022-09-21T02:20:49.278Z,4.40
2022-09-21T02:23:49.471Z,5.70
2022-09-21T02:26:26.785Z,5.00
2022-09-21T02:29:10.358Z,3.40
2022-09-21T02:31:59.491Z,5.00
2022-09-21T02:34:46.506Z,4.20
2022-09-21T02:37:24.349Z,6.20
2022-09-21T02:40:13.857Z,5.40
2022-09-21T02:42:45.370Z,4.80
2022-09-21T02:45:26.704Z,5.90
2022-09-21T02:48:04.793Z,9.00
2022-09-21T02:50:40.650Z,5.70
2022-09-21T02:53:11.610Z,8.30
2022-09-21T02:55:40.353Z,9.20
2022-09-21T02:58:13.145Z,7.80
2022-09-21T03:00:41.406Z,8.80
2022-09-21T03:03:18.532Z,9.00
2022-09-21T03:05:52.550Z,7.90
2022-09-21T03:08:21.082Z,14.70
2022-09-21T03:10:50.833Z,13.80
2022-09-21T03:13:19.047Z,14.20
2022-09-21T03:15:47.595Z,13.10
2022-09-21T03:18:16.132Z,12.80
2022-09-21T03:20:46.252Z,9.80
2022-09-21T03:23:14.781Z,9.00
2022-09-21T03:25:47.765Z,8.30
2022-09-21T03:28:16.642Z,8.10
2022-09-21T03:30:45.089Z,6.40
2022-09-21T03:33:13.827Z,7.90
2022-09-21T03:35:42.782Z,7.10
2022-09-21T03:38:11.993Z,6.60
2022-09-21T03:40:40.151Z,5.50
2022-09-21T03:43:08.331Z,4.20
2022-09-21T03:45:38.289Z,4.10
2022-09-21T03:48:06.874Z,3.70
2022-09-21T03:50:35.128Z,4.90
2022-09-21T03:53:03.822Z,4.00
2022-09-21T03:55:32.834Z,3.50
2022-09-21T03:58:01.136Z,6.30
2022-09-21T04:00:29.957Z,7.40
2022-09-21T04:02:58.273Z,6.00
2022-09-21T04:05:27.929Z,7.60
2022-09-21T04:07:56.918Z,9.10
2022-09-21T04:10:32.919Z,7.00
2022-09-21T04:13:02.277Z,6.70
2022-09-21T04:15:31.420Z,5.70
2022-09-21T04:17:59.750Z,4.30
2022-09-21T04:20:28.030Z,4.50
2022-09-21T04:22:58.103Z,3.60
2022-09-21T04:25:26.213Z,6.60
2022-09-21T04:27:54.538Z,6.40
2022-09-21T04:30:22.610Z,16.40
2022-09-21T04:32:50.766Z,36.40
2022-09-21T04:35:18.961Z,31.20
2022-09-21T04:37:47.094Z,31.90
2022-09-21T04:40:15.803Z,31.00
2022-09-21T04:42:44.000Z,25.20
2022-09-21T04:45:13.021Z,23.00
2022-09-21T04:47:41.208Z,20.40
2022-09-21T04:50:09.873Z,20.00
2022-09-21T04:52:38.037Z,23.00
2022-09-21T04:55:08.675Z,14.60
2022-09-21T05:00:38.933Z,11.70
2022-09-21T05:03:07.502Z,18.30
2022-09-21T05:05:37.532Z,14.20
2022-09-21T05:08:11.477Z,15.30
2022-09-21T05:10:42.033Z,12.30
2022-09-21T05:13:14.731Z,11.10
2022-09-21T05:15:48.557Z,9.80
2022-09-21T05:18:22.734Z,11.90
2022-09-21T05:23:36.078Z,6.50
2022-09-21T05:26:13.781Z,8.70
2022-09-21T05:28:48.051Z,8.40
2022-09-21T05:31:19.532Z,12.60
2022-09-21T05:34:00.941Z,11.40
2022-09-21T05:36:40.674Z,7.20
2022-09-21T05:39:17.077Z,11.00
2022-09-21T05:46:56.673Z,5.20
2022-09-21T05:50:26.290Z,6.00
2022-09-21T05:54:17.919Z,8.70
2022-09-21T06:00:22.994Z,10.10
2022-09-21T06:17:53.136Z,4.70
2022-09-21T06:20:46.078Z,4.20
2022-09-21T06:23:25.519Z,5.50
2022-09-21T06:26:18.657Z,7.90
2022-09-21T06:28:58.823Z,2.30
2022-09-21T06:31:30.600Z,4.30
2022-09-21T06:34:05.554Z,4.40
2022-09-21T06:36:44.887Z,6.50
2022-09-21T06:39:14.999Z,3.70
2022-09-21T06:41:55.485Z,4.90
2022-09-21T06:44:27.457Z,4.50
2022-09-21T06:46:59.311Z,5.90
2022-09-21T06:49:54.121Z,6.20
2022-09-21T06:52:43.715Z,19.80
2022-09-21T06:55:16.332Z,6.50
2022-09-21T06:57:53.812Z,7.40
2022-09-21T07:00:31.263Z,27.60
2022-09-21T07:03:06.028Z,17.50
2022-09-21T07:05:40.154Z,6.60
2022-09-21T07:11:05.812Z,4.20
2022-09-21T07:13:40.883Z,4.20
2022-09-21T07:16:15.085Z,3.90
2022-09-21T07:19:10.025Z,6.90
2022-09-21T07:21:42.248Z,6.40
2022-09-21T07:25:34.832Z,4.40
2022-09-21T07:28:06.753Z,2.20
2022-09-21T07:30:42.302Z,5.20
2022-09-21T07:33:15.175Z,5.40
2022-09-21T07:35:58.067Z,4.00
2022-09-21T07:38:29.486Z,3.30
2022-09-21T07:41:03.405Z,4.50
2022-09-21T07:43:35.509Z,2.60
2022-09-21T07:46:09.708Z,4.30
2022-09-21T07:48:39.150Z,5.60
2022-09-21T07:51:11.540Z,3.90
2022-09-21T07:53:45.132Z,12.40
2022-09-21T07:56:20.549Z,39.30
2022-09-21T07:59:15.383Z,3.50
2022-09-21T08:01:53.151Z,4.90
2022-09-21T08:04:36.080Z,4.20
2022-09-21T08:07:28.555Z,3.70
2022-09-21T08:40:54.923Z,1.80
2022-09-21T08:43:45.280Z,3.20
2022-09-21T08:46:26.369Z,3.20
2022-09-21T08:52:25.877Z,2.60
2022-09-21T08:58:28.846Z,2.60
2022-09-21T09:01:20.296Z,24.80
2022-09-21T09:04:31.658Z,3.40
2022-09-21T09:07:55.848Z,7.50
2022-09-21T09:11:33.799Z,14.80
2022-09-21T09:14:45.250Z,5.20
2022-09-21T09:18:23.835Z,3.20
2022-09-21T09:21:30.146Z,5.00
2022-09-21T09:24:39.914Z,5.30
2022-09-21T09:27:39.526Z,6.80
2022-09-21T09:30:32.664Z,15.50
2022-09-21T09:33:26.513Z,17.20
2022-09-21T09:36:12.206Z,51.10
2022-09-21T09:42:19.626Z,17.90
2022-09-21T09:45:37.723Z,18.30
2022-09-21T09:48:26.335Z,9.00
2022-09-21T09:54:41.466Z,2.30
2022-09-21T09:57:23.952Z,7.80
2022-09-21T10:00:14.560Z,9.90
2022-09-21T10:03:01.808Z,7.30
2022-09-21T10:05:50.292Z,15.70
2022-09-21T10:08:48.204Z,9.10
2022-09-21T10:11:52.636Z,7.80
2022-09-21T10:14:40.969Z,11.30
2022-09-21T10:17:29.210Z,5.30
2022-09-21T10:20:01.426Z,8.70
2022-09-21T10:22:41.663Z,5.70
2022-09-21T10:25:21.316Z,17.90
2022-09-21T10:28:00.115Z,8.70
2022-09-21T10:30:52.031Z,16.70
2022-09-21T10:36:00.167Z,10.10
2022-09-21T10:38:37.300Z,3.40
2022-09-21T10:41:07.093Z,4.40
2022-09-21T10:43:48.736Z,13.50
2022-09-21T10:46:41.511Z,4.50
2022-09-21T10:49:26.576Z,7.20
2022-09-21T10:51:59.700Z,4.40
2022-09-21T10:54:32.884Z,3.60
2022-09-21T10:57:07.169Z,9.20
2022-09-21T10:59:40.080Z,14.00
2022-09-21T11:02:35.589Z,3.60
2022-09-21T11:05:23.834Z,8.70
2022-09-21T11:08:20.029Z,14.50
2022-09-21T11:11:35.820Z,9.40
2022-09-21T11:14:14.921Z,7.60
2022-09-21T11:16:52.715Z,5.80
2022-09-21T11:19:46.683Z,13.40
2022-09-21T11:22:35.850Z,8.80
2022-09-21T11:25:35.744Z,3.30
2022-09-21T11:28:30.342Z,5.00
2022-09-21T11:31:30.126Z,5.00
2022-09-21T11:34:16.701Z,4.20
2022-09-21T11:37:22.497Z,7.10
2022-09-21T11:40:22.327Z,5.40
2022-09-21T11:43:07.256Z,8.90
2022-09-21T11:46:16.017Z,7.40
2022-09-21T11:49:03.122Z,6.50
2022-09-21T11:51:50.777Z,11.10
2022-09-21T11:54:39.734Z,7.20
2022-09-21T11:57:19.201Z,7.70
2022-09-21T12:00:18.037Z,5.10
2022-09-21T12:03:18.951Z,2.50
2022-09-21T12:06:05.706Z,3.30
2022-09-21T12:08:59.961Z,5.70
2022-09-21T12:11:44.069Z,8.40
2022-09-21T12:14:20.105Z,7.00
2022-09-21T12:16:48.259Z,6.30
2022-09-21T12:19:43.619Z,7.30
2022-09-21T12:22:18.646Z,6.40
2022-09-21T12:24:52.607Z,4.70
2022-09-21T12:27:30.715Z,5.60
2022-09-21T12:30:08.446Z,5.30
2022-09-21T12:32:49.790Z,6.10
2022-09-21T12:36:03.209Z,6.30
2022-09-21T12:38:43.019Z,3.60
2022-09-21T12:41:39.973Z,3.00
2022-09-21T12:44:27.077Z,4.80
2022-09-21T12:47:09.667Z,6.90
2022-09-21T12:49:50.899Z,4.30
2022-09-21T12:52:26.423Z,4.70
2022-09-21T12:55:02.191Z,3.50
2022-09-21T12:58:14.569Z,5.70
2022-09-21T13:01:11.392Z,5.60
2022-09-21T13:03:49.402Z,6.40
2022-09-21T13:06:57.090Z,7.30
2022-09-21T13:09:27.261Z,4.50
2022-09-21T13:12:19.920Z,7.00
2022-09-21T13:15:03.294Z,5.50
2022-09-21T13:17:35.908Z,5.80
2022-09-21T13:20:23.029Z,5.10
2022-09-21T13:23:03.432Z,4.90
2022-09-21T13:25:37.997Z,5.00
2022-09-21T13:28:19.998Z,5.10
2022-09-21T13:31:40.392Z,5.50
2022-09-21T13:34:26.096Z,6.20
2022-09-21T13:37:11.440Z,4.80
2022-09-21T13:40:02.136Z,6.80
2022-09-21T13:42:31.171Z,6.10
2022-09-21T13:45:19.402Z,7.20
2022-09-21T13:48:00.204Z,4.50
2022-09-21T13:50:44.886Z,5.40
2022-09-21T13:53:19.723Z,3.80
2022-09-21T13:55:54.025Z,7.20
2022-09-21T13:58:32.932Z,38.00
2022-09-21T14:01:35.531Z,45.00
2022-09-21T14:04:15.693Z,10.40
2022-09-21T14:06:48.437Z,10.60
2022-09-21T14:09:43.795Z,4.70
2022-09-21T14:12:21.808Z,15.50
2022-09-21T14:15:13.370Z,69.30
2022-09-21T14:17:44.190Z,35.40
2022-09-21T14:20:34.617Z,16.50
2022-09-21T14:23:28.960Z,11.00
2022-09-21T14:26:02.310Z,39.30
2022-09-21T14:28:39.911Z,20.50
2022-09-21T14:31:18.665Z,16.80
2022-09-21T14:33:59.789Z,36.20
2022-09-21T14:36:44.078Z,19.20
2022-09-21T14:39:21.969Z,49.30
2022-09-21T14:41:54.920Z,15.20
2022-09-21T14:44:34.146Z,32.20
2022-09-21T14:47:36.267Z,64.80
2022-09-21T14:50:15.366Z,29.20
2022-09-21T14:52:58.703Z,11.50
2022-09-21T14:56:04.427Z,13.30
2022-09-21T14:58:46.913Z,3.60
2022-09-21T15:01:25.414Z,5.30
2022-09-21T15:04:16.844Z,7.80
2022-09-21T15:07:26.342Z,5.20
2022-09-21T15:10:35.434Z,3.70
2022-09-21T15:13:20.470Z,5.00
2022-09-21T15:16:11.438Z,3.10
2022-09-21T15:18:44.336Z,4.20
2022-09-21T15:21:30.611Z,3.30
2022-09-21T15:24:01.818Z,3.10
2022-09-21T15:26:34.519Z,3.40
2022-09-21T15:29:18.353Z,3.10
2022-09-21T15:31:48.958Z,5.30
2022-09-21T15:34:17.247Z,7.30
2022-09-21T15:36:52.171Z,8.00
2022-09-21T15:39:31.892Z,8.00
2022-09-21T15:42:09.107Z,5.40
2022-09-21T15:44:39.602Z,7.50
2022-09-21T15:47:09.609Z,6.20
2022-09-21T15:49:41.968Z,7.10
2022-09-21T15:52:23.421Z,11.20
2022-09-21T15:54:57.244Z,8.60
2022-09-21T15:57:38.807Z,9.80
2022-09-21T16:00:19.778Z,7.90
2022-09-21T16:03:20.191Z,9.90
2022-09-21T16:05:51.430Z,9.90
2022-09-21T16:08:37.284Z,15.30
2022-09-21T16:11:33.254Z,28.00
2022-09-21T16:14:32.890Z,37.70
2022-09-21T16:17:12.990Z,58.50
2022-09-21T16:19:45.205Z,45.30
2022-09-21T16:22:19.955Z,23.30
2022-09-21T16:24:55.369Z,17.90
2022-09-21T16:27:29.074Z,18.80
2022-09-21T16:30:00.339Z,15.70
2022-09-21T16:32:35.905Z,16.00
2022-09-21T16:35:29.479Z,10.80
2022-09-21T16:38:01.567Z,15.20
2022-09-21T16:40:30.158Z,18.80
2022-09-21T16:42:58.985Z,24.20
2022-09-21T16:45:31.413Z,17.20
2022-09-21T16:47:59.899Z,15.00
2022-09-21T16:50:28.080Z,14.10
2022-09-21T16:52:56.265Z,17.30
2022-09-21T16:55:28.944Z,34.90
2022-09-21T16:57:57.916Z,31.70
2022-09-21T17:00:29.395Z,27.90
2022-09-21T17:02:57.692Z,28.80
2022-09-21T17:05:26.262Z,42.60
2022-09-21T17:07:57.799Z,57.10
2022-09-21T17:10:32.247Z,50.00
2022-09-21T17:15:32.588Z,46.80
2022-09-21T17:18:00.848Z,49.70
2022-09-21T17:20:35.783Z,39.80
2022-09-21T17:23:04.845Z,31.60
2022-09-21T17:25:35.130Z,29.80
2022-09-21T17:28:12.580Z,26.90
2022-09-21T17:30:42.668Z,26.70
2022-09-21T17:33:11.175Z,23.60
2022-09-21T17:35:41.721Z,22.20
2022-09-21T17:38:14.166Z,23.50
2022-09-21T17:40:43.367Z,21.90
2022-09-21T17:43:14.574Z,25.20
2022-09-21T17:45:50.575Z,25.20
2022-09-21T17:48:21.420Z,20.90
2022-09-21T17:50:50.537Z,24.70
2022-09-21T17:53:34.778Z,20.80
2022-09-21T17:56:18.153Z,18.30
2022-09-21T17:58:52.044Z,17.30
2022-09-21T18:01:35.188Z,16.20
2022-09-21T18:04:04.987Z,16.10
2022-09-21T18:06:34.319Z,12.70
2022-09-21T18:09:03.620Z,13.60
2022-09-21T18:11:45.774Z,18.20
2022-09-21T18:14:44.792Z,15.90
2022-09-21T18:17:51.484Z,22.80
2022-09-21T18:20:57.105Z,18.10
2022-09-21T18:23:43.613Z,15.50
2022-09-21T18:26:16.518Z,9.70
2022-09-21T18:28:58.172Z,8.70
2022-09-21T18:31:54.151Z,10.10
2022-09-21T18:34:44.162Z,15.20
2022-09-21T18:37:47.490Z,15.60
2022-09-21T18:40:41.278Z,19.60
2022-09-21T18:43:40.499Z,15.50
2022-09-21T18:46:17.085Z,14.10
2022-09-21T18:48:56.494Z,16.00
2022-09-21T18:51:57.683Z,20.40
2022-09-21T18:54:28.096Z,18.90
2022-09-21T18:56:56.710Z,19.20
2022-09-21T18:59:29.608Z,27.90
2022-09-21T19:02:00.159Z,40.20
2022-09-21T19:04:29.296Z,36.80
2022-09-21T19:07:10.841Z,31.70
2022-09-21T19:09:52.226Z,37.10
2022-09-21T19:12:28.445Z,35.30
2022-09-21T19:15:42.303Z,31.80
2022-09-21T19:18:35.967Z,28.30
2022-09-21T19:21:28.482Z,27.50
2022-09-21T19:24:12.028Z,23.70
2022-09-21T19:27:04.756Z,22.40
2022-09-21T19:29:47.259Z,17.10
2022-09-21T19:32:18.537Z,15.70
2022-09-21T19:34:47.432Z,16.00
2022-09-21T19:37:15.602Z,14.70
2022-09-21T19:39:44.007Z,15.40
2022-09-21T19:42:32.779Z,13.60
2022-09-21T19:45:31.056Z,11.00
2022-09-21T19:48:05.099Z,15.10
2022-09-21T19:50:48.874Z,17.20
2022-09-21T19:53:35.935Z,13.90
2022-09-21T19:56:29.417Z,11.40
2022-09-21T19:59:16.787Z,10.60
2022-09-21T20:02:05.938Z,9.00
2022-09-21T20:05:01.755Z,9.90
2022-09-21T20:07:45.771Z,10.80
2022-09-21T20:10:24.711Z,9.00
2022-09-21T20:13:01.767Z,9.10
2022-09-21T20:16:03.939Z,8.00
2022-09-21T20:18:40.026Z,8.30
2022-09-21T20:21:15.554Z,7.20
2022-09-21T20:23:45.242Z,6.30
2022-09-21T20:26:27.300Z,7.30
2022-09-21T20:28:55.623Z,7.00
2022-09-21T20:31:25.945Z,6.20
2022-09-21T20:33:54.124Z,6.10
2022-09-21T20:36:23.001Z,6.60
2022-09-21T20:38:51.136Z,6.50
2022-09-21T20:41:20.350Z,7.10
2022-09-21T20:43:48.416Z,8.20
2022-09-21T20:46:17.156Z,8.80
2022-09-21T20:48:45.308Z,7.60
2022-09-21T20:51:13.411Z,8.70
2022-09-21T20:53:41.522Z,8.40
2022-09-21T20:56:09.676Z,8.20
2022-09-21T20:58:37.970Z,7.90
2022-09-21T21:01:07.527Z,8.00
2022-09-21T21:03:37.195Z,6.10
2022-09-21T21:06:08.458Z,5.80
2022-09-21T21:08:36.513Z,6.50
2022-09-21T21:11:04.752Z,6.10
2022-09-21T21:13:33.733Z,7.30
2022-09-21T21:16:07.068Z,7.50
2022-09-21T21:18:42.804Z,6.90
2022-09-21T21:21:11.730Z,7.70
2022-09-21T21:24:02.859Z,7.20
2022-09-21T21:26:57.320Z,6.10
2022-09-21T21:29:19.686Z,7.80
2022-09-21T21:31:48.938Z,6.70
2022-09-21T21:34:17.297Z,8.70
2022-09-21T21:36:45.670Z,8.10
2022-09-21T21:39:13.821Z,8.30
2022-09-21T21:41:43.422Z,8.70
2022-09-21T21:44:11.833Z,6.40
2022-09-21T21:46:39.935Z,7.10
2022-09-21T21:49:08.019Z,8.10
2022-09-21T21:51:36.178Z,11.90
2022-09-21T21:54:04.449Z,11.00
2022-09-21T21:56:32.617Z,9.50
2022-09-21T21:59:00.852Z,7.80
2022-09-21T22:01:30.229Z,6.80
2022-09-21T22:04:01.464Z,6.90
2022-09-21T22:06:31.502Z,7.20
2022-09-21T22:09:00.452Z,6.30
2022-09-21T22:11:29.301Z,8.00
2022-09-21T22:13:58.885Z,10.20
2022-09-21T22:16:29.532Z,11.80
2022-09-21T22:18:58.693Z,12.10
2022-09-21T22:21:32.492Z,14.80
2022-09-21T22:24:04.393Z,9.20
2022-09-21T22:26:37.008Z,12.00
2022-09-21T22:29:06.973Z,8.10
2022-09-21T22:31:41.170Z,7.60
2022-09-21T22:34:09.631Z,7.20
2022-09-21T22:36:39.135Z,7.80
2022-09-21T22:39:08.409Z,8.80
2022-09-21T22:41:41.426Z,6.50
2022-09-21T22:44:10.788Z,5.70
2022-09-21T22:46:39.766Z,5.60
2022-09-21T22:49:08.310Z,7.20
2022-09-21T22:51:36.513Z,9.20
2022-09-21T22:54:04.856Z,7.70
2022-09-21T22:56:33.700Z,8.10
2022-09-21T22:59:04.286Z,9.00
2022-09-21T23:01:36.417Z,6.50
2022-09-21T23:04:13.270Z,6.90
2022-09-21T23:06:44.944Z,6.10
2022-09-21T23:09:17.076Z,7.70
2022-09-21T23:11:53.662Z,8.70
2022-09-21T23:14:23.387Z,7.50
2022-09-21T23:16:51.630Z,7.70
2022-09-21T23:19:19.850Z,11.60
2022-09-21T23:21:50.221Z,13.10
2022-09-21T23:24:19.507Z,9.00
2022-09-21T23:26:50.620Z,7.60
2022-09-21T23:29:19.103Z,6.60
2022-09-21T23:31:47.300Z,6.30
2022-09-21T23:34:16.239Z,6.80
2022-09-21T23:36:45.643Z,6.70
2022-09-21T23:39:15.688Z,6.30
2022-09-21T23:41:44.534Z,7.40
2022-09-21T23:44:12.694Z,7.20
2022-09-21T23:46:42.249Z,7.00
2022-09-21T23:49:10.649Z,8.20
2022-09-21T23:51:39.962Z,9.50
2022-09-21T23:54:08.101Z,9.30
2022-09-21T23:56:36.515Z,13.40
2022-09-21T23:59:05.676Z,12.40
